sensor_id;sensor_type;location;lat;lon;timestamp;pressure;altitude;pressure_sealevel;temperature;humidity
22550;BME280;11441;57.164;-2.120;2023-04-26T00:00:10;101437.28;;;3.44;100.00
22550;BME280;11441;57.164;-2.120;2023-04-26T00:02:37;101437.97;;;3.31;100.00
22550;BME280;11441;57.164;-2.120;2023-04-26T00:05:05;101437.16;;;3.30;100.00
22550;BME280;11441;57.164;-2.120;2023-04-26T00:07:34;101438.16;;;3.39;100.00
22550;BME280;11441;57.164;-2.120;2023-04-26T00:10:01;101437.78;;;3.22;100.00
22550;BME280;11441;57.164;-2.120;2023-04-26T00:12:27;101432.09;;;3.18;100.00
22550;BME280;11441;57.164;-2.120;2023-04-26T00:15:14;101432.19;;;3.37;100.00
22550;BME280;11441;57.164;-2.120;2023-04-26T00:17:41;101420.41;;;3.18;100.00
22550;BME280;11441;57.164;-2.120;2023-04-26T00:20:09;101430.50;;;3.17;100.00
22550;BME280;11441;57.164;-2.120;2023-04-26T00:22:38;101423.22;;;3.08;100.00
22550;BME280;11441;57.164;-2.120;2023-04-26T00:25:06;101428.94;;;3.06;100.00
22550;BME280;11441;57.164;-2.120;2023-04-26T00:27:33;101431.34;;;3.13;100.00
22550;BME280;11441;57.164;-2.120;2023-04-26T00:30:00;101429.72;;;3.12;100.00
22550;BME280;11441;57.164;-2.120;2023-04-26T00:32:27;101433.78;;;3.14;100.00
22550;BME280;11441;57.164;-2.120;2023-04-26T00:34:54;101428.34;;;3.14;100.00
22550;BME280;11441;57.164;-2.120;2023-04-26T00:37:21;101432.13;;;3.13;100.00
22550;BME280;11441;57.164;-2.120;2023-04-26T00:39:48;101431.09;;;3.09;100.00
22550;BME280;11441;57.164;-2.120;2023-04-26T00:42:15;101424.84;;;3.09;100.00
22550;BME280;11441;57.164;-2.120;2023-04-26T00:44:42;101428.56;;;3.18;100.00
22550;BME280;11441;57.164;-2.120;2023-04-26T00:47:09;101430.53;;;3.12;100.00
22550;BME280;11441;57.164;-2.120;2023-04-26T00:49:36;101423.25;;;3.02;100.00
22550;BME280;11441;57.164;-2.120;2023-04-26T00:52:21;101415.16;;;2.97;100.00
22550;BME280;11441;57.164;-2.120;2023-04-26T00:54:49;101417.59;;;2.99;100.00
22550;BME280;11441;57.164;-2.120;2023-04-26T00:57:16;101404.63;;;2.86;100.00
22550;BME280;11441;57.164;-2.120;2023-04-26T00:59:43;101406.59;;;3.09;100.00
22550;BME280;11441;57.164;-2.120;2023-04-26T01:02:10;101406.59;;;3.09;100.00
22550;BME280;11441;57.164;-2.120;2023-04-26T01:04:37;101413.69;;;3.10;100.00
22550;BME280;11441;57.164;-2.120;2023-04-26T01:07:05;101416.03;;;2.93;100.00
22550;BME280;11441;57.164;-2.120;2023-04-26T01:09:33;101407.47;;;3.05;100.00
22550;BME280;11441;57.164;-2.120;2023-04-26T01:11:59;101400.16;;;3.00;100.00
22550;BME280;11441;57.164;-2.120;2023-04-26T01:14:27;101398.38;;;2.85;100.00
22550;BME280;11441;57.164;-2.120;2023-04-26T01:16:56;101395.72;;;2.80;100.00
22550;BME280;11441;57.164;-2.120;2023-04-26T01:19:23;101392.91;;;2.90;100.00
22550;BME280;11441;57.164;-2.120;2023-04-26T01:22:09;101396.22;;;2.82;100.00
22550;BME280;11441;57.164;-2.120;2023-04-26T01:24:36;101398.50;;;2.70;100.00
22550;BME280;11441;57.164;-2.120;2023-04-26T01:27:04;101398.78;;;2.68;100.00
22550;BME280;11441;57.164;-2.120;2023-04-26T01:29:31;101401.25;;;2.35;100.00
22550;BME280;11441;57.164;-2.120;2023-04-26T01:31:58;101385.75;;;2.31;100.00
22550;BME280;11441;57.164;-2.120;2023-04-26T01:34:27;101402.44;;;2.14;100.00
22550;BME280;11441;57.164;-2.120;2023-04-26T01:36:54;101391.69;;;2.38;100.00
22550;BME280;11441;57.164;-2.120;2023-04-26T01:39:21;101371.94;;;2.27;100.00
22550;BME280;11441;57.164;-2.120;2023-04-26T01:41:48;101385.59;;;2.17;100.00
22550;BME280;11441;57.164;-2.120;2023-04-26T01:44:15;101384.69;;;2.32;100.00
22550;BME280;11441;57.164;-2.120;2023-04-26T01:46:42;101383.25;;;2.39;100.00
22550;BME280;11441;57.164;-2.120;2023-04-26T01:49:11;101369.47;;;2.25;100.00
22550;BME280;11441;57.164;-2.120;2023-04-26T01:51:38;101382.47;;;2.34;100.00
22550;BME280;11441;57.164;-2.120;2023-04-26T01:54:06;101378.34;;;2.41;100.00
22550;BME280;11441;57.164;-2.120;2023-04-26T01:56:33;101379.00;;;2.23;100.00
22550;BME280;11441;57.164;-2.120;2023-04-26T01:59:00;101377.84;;;2.34;100.00
22550;BME280;11441;57.164;-2.120;2023-04-26T02:01:28;101380.66;;;2.19;100.00
22550;BME280;11441;57.164;-2.120;2023-04-26T02:03:55;101374.50;;;2.08;100.00
22550;BME280;11441;57.164;-2.120;2023-04-26T02:06:22;101372.47;;;2.24;100.00
22550;BME280;11441;57.164;-2.120;2023-04-26T02:08:50;101368.19;;;2.18;100.00
22550;BME280;11441;57.164;-2.120;2023-04-26T02:11:17;101370.31;;;2.21;100.00
22550;BME280;11441;57.164;-2.120;2023-04-26T02:13:44;101356.00;;;2.10;100.00
22550;BME280;11441;57.164;-2.120;2023-04-26T02:16:11;101365.38;;;2.28;100.00
22550;BME280;11441;57.164;-2.120;2023-04-26T02:18:38;101368.69;;;2.25;100.00
22550;BME280;11441;57.164;-2.120;2023-04-26T02:21:07;101366.16;;;2.34;100.00
22550;BME280;11441;57.164;-2.120;2023-04-26T02:23:35;101375.97;;;2.30;100.00
22550;BME280;11441;57.164;-2.120;2023-04-26T02:26:02;101382.25;;;2.30;100.00
22550;BME280;11441;57.164;-2.120;2023-04-26T02:28:29;101374.50;;;2.48;100.00
22550;BME280;11441;57.164;-2.120;2023-04-26T02:30:57;101377.22;;;2.48;100.00
22550;BME280;11441;57.164;-2.120;2023-04-26T02:33:24;101378.19;;;2.62;100.00
22550;BME280;11441;57.164;-2.120;2023-04-26T02:35:51;101377.06;;;2.34;100.00
22550;BME280;11441;57.164;-2.120;2023-04-26T02:38:18;101374.69;;;2.22;100.00
22550;BME280;11441;57.164;-2.120;2023-04-26T02:40:45;101369.72;;;2.29;100.00
22550;BME280;11441;57.164;-2.120;2023-04-26T02:43:12;101366.56;;;2.17;100.00
22550;BME280;11441;57.164;-2.120;2023-04-26T02:45:41;101364.38;;;2.14;100.00
22550;BME280;11441;57.164;-2.120;2023-04-26T02:48:10;101365.75;;;2.16;100.00
22550;BME280;11441;57.164;-2.120;2023-04-26T02:50:37;101362.16;;;2.21;100.00
22550;BME280;11441;57.164;-2.120;2023-04-26T02:53:04;101361.63;;;2.19;100.00
22550;BME280;11441;57.164;-2.120;2023-04-26T02:55:32;101357.53;;;2.26;100.00
22550;BME280;11441;57.164;-2.120;2023-04-26T02:57:59;101366.00;;;2.20;100.00
22550;BME280;11441;57.164;-2.120;2023-04-26T03:00:25;101366.25;;;2.23;100.00
22550;BME280;11441;57.164;-2.120;2023-04-26T03:02:53;101361.38;;;2.20;100.00
22550;BME280;11441;57.164;-2.120;2023-04-26T03:05:20;101363.81;;;2.22;100.00
22550;BME280;11441;57.164;-2.120;2023-04-26T03:07:48;101362.06;;;2.36;100.00
22550;BME280;11441;57.164;-2.120;2023-04-26T03:10:15;101364.19;;;2.44;100.00
22550;BME280;11441;57.164;-2.120;2023-04-26T03:12:42;101371.53;;;2.44;100.00
22550;BME280;11441;57.164;-2.120;2023-04-26T03:15:09;101357.25;;;2.23;100.00
22550;BME280;11441;57.164;-2.120;2023-04-26T03:17:38;101363.72;;;2.32;100.00
22550;BME280;11441;57.164;-2.120;2023-04-26T03:20:05;101366.78;;;2.20;100.00
22550;BME280;11441;57.164;-2.120;2023-04-26T03:22:51;101360.81;;;2.23;100.00
22550;BME280;11441;57.164;-2.120;2023-04-26T03:25:37;101362.78;;;2.13;100.00
22550;BME280;11441;57.164;-2.120;2023-04-26T03:28:04;101357.97;;;1.99;100.00
22550;BME280;11441;57.164;-2.120;2023-04-26T03:30:31;101351.44;;;2.00;100.00
22550;BME280;11441;57.164;-2.120;2023-04-26T03:32:58;101353.63;;;1.98;100.00
22550;BME280;11441;57.164;-2.120;2023-04-26T03:35:25;101352.44;;;2.15;100.00
22550;BME280;11441;57.164;-2.120;2023-04-26T03:37:52;101349.44;;;2.16;100.00
22550;BME280;11441;57.164;-2.120;2023-04-26T03:40:38;101352.19;;;2.11;100.00
22550;BME280;11441;57.164;-2.120;2023-04-26T03:43:05;101335.22;;;1.90;100.00
22550;BME280;11441;57.164;-2.120;2023-04-26T03:45:32;101349.59;;;1.91;100.00
22550;BME280;11441;57.164;-2.120;2023-04-26T03:47:59;101340.41;;;1.81;100.00
22550;BME280;11441;57.164;-2.120;2023-04-26T03:50:26;101338.47;;;1.87;100.00
22550;BME280;11441;57.164;-2.120;2023-04-26T03:52:54;101326.78;;;1.92;100.00
22550;BME280;11441;57.164;-2.120;2023-04-26T03:55:21;101331.31;;;2.01;100.00
22550;BME280;11441;57.164;-2.120;2023-04-26T03:58:09;101331.84;;;2.03;100.00
22550;BME280;11441;57.164;-2.120;2023-04-26T04:00:36;101328.81;;;2.10;100.00
22550;BME280;11441;57.164;-2.120;2023-04-26T04:03:05;101329.13;;;2.03;100.00
22550;BME280;11441;57.164;-2.120;2023-04-26T04:05:32;101329.38;;;2.07;100.00
22550;BME280;11441;57.164;-2.120;2023-04-26T04:07:59;101321.00;;;1.98;100.00
22550;BME280;11441;57.164;-2.120;2023-04-26T04:10:27;101324.28;;;2.00;100.00
22550;BME280;11441;57.164;-2.120;2023-04-26T04:12:54;101317.47;;;2.03;100.00
22550;BME280;11441;57.164;-2.120;2023-04-26T04:15:22;101299.97;;;1.75;100.00
22550;BME280;11441;57.164;-2.120;2023-04-26T04:17:49;101318.38;;;1.83;100.00
22550;BME280;11441;57.164;-2.120;2023-04-26T04:20:16;101317.81;;;1.86;100.00
22550;BME280;11441;57.164;-2.120;2023-04-26T04:22:43;101318.34;;;1.88;100.00
22550;BME280;11441;57.164;-2.120;2023-04-26T04:25:11;101322.22;;;1.82;100.00
22550;BME280;11441;57.164;-2.120;2023-04-26T04:27:39;101322.47;;;1.85;100.00
22550;BME280;11441;57.164;-2.120;2023-04-26T04:30:09;101326.63;;;1.73;100.00
22550;BME280;11441;57.164;-2.120;2023-04-26T04:32:36;101329.03;;;1.74;100.00
22550;BME280;11441;57.164;-2.120;2023-04-26T04:35:05;101325.22;;;1.75;100.00
22550;BME280;11441;57.164;-2.120;2023-04-26T04:37:33;101317.31;;;1.84;100.00
22550;BME280;11441;57.164;-2.120;2023-04-26T04:40:19;101326.81;;;1.86;100.00
22550;BME280;11441;57.164;-2.120;2023-04-26T04:42:47;101315.41;;;1.79;100.00
22550;BME280;11441;57.164;-2.120;2023-04-26T04:45:16;101322.50;;;1.75;100.00
22550;BME280;11441;57.164;-2.120;2023-04-26T04:47:43;101326.25;;;1.84;100.00
22550;BME280;11441;57.164;-2.120;2023-04-26T04:50:28;101330.13;;;1.73;100.00
22550;BME280;11441;57.164;-2.120;2023-04-26T04:52:57;101317.38;;;1.68;100.00
22550;BME280;11441;57.164;-2.120;2023-04-26T04:55:24;101326.84;;;1.81;100.00
22550;BME280;11441;57.164;-2.120;2023-04-26T04:57:52;101329.25;;;1.83;100.00
22550;BME280;11441;57.164;-2.120;2023-04-26T05:00:19;101321.94;;;1.83;100.00
22550;BME280;11441;57.164;-2.120;2023-04-26T05:02:51;101322.44;;;1.91;100.00
22550;BME280;11441;57.164;-2.120;2023-04-26T05:05:18;101327.63;;;1.87;100.00
22550;BME280;11441;57.164;-2.120;2023-04-26T05:07:45;101322.97;;;1.87;100.00
22550;BME280;11441;57.164;-2.120;2023-04-26T05:10:13;101326.94;;;2.05;100.00
22550;BME280;11441;57.164;-2.120;2023-04-26T05:12:41;101336.72;;;2.06;100.00
22550;BME280;11441;57.164;-2.120;2023-04-26T05:15:08;101334.00;;;2.06;100.00
22550;BME280;11441;57.164;-2.120;2023-04-26T05:17:35;101330.38;;;2.21;100.00
22550;BME280;11441;57.164;-2.120;2023-04-26T05:20:17;101339.81;;;2.29;100.00
22550;BME280;11441;57.164;-2.120;2023-04-26T05:22:45;101337.28;;;2.43;100.00
22550;BME280;11441;57.164;-2.120;2023-04-26T05:25:12;101336.19;;;2.44;100.00
22550;BME280;11441;57.164;-2.120;2023-04-26T05:27:40;101339.44;;;2.46;100.00
22550;BME280;11441;57.164;-2.120;2023-04-26T05:30:27;101339.53;;;2.31;100.00
22550;BME280;11441;57.164;-2.120;2023-04-26T05:33:03;101345.72;;;2.41;100.00
22550;BME280;11441;57.164;-2.120;2023-04-26T05:35:38;101345.13;;;2.50;100.00
22550;BME280;11441;57.164;-2.120;2023-04-26T05:38:05;101348.88;;;2.54;100.00
22550;BME280;11441;57.164;-2.120;2023-04-26T05:40:32;101355.81;;;2.70;100.00
22550;BME280;11441;57.164;-2.120;2023-04-26T05:42:59;101348.66;;;2.79;100.00
22550;BME280;11441;57.164;-2.120;2023-04-26T05:45:27;101353.06;;;2.75;100.00
22550;BME280;11441;57.164;-2.120;2023-04-26T05:47:54;101337.25;;;2.77;100.00
22550;BME280;11441;57.164;-2.120;2023-04-26T05:50:21;101349.66;;;2.89;100.00
22550;BME280;11441;57.164;-2.120;2023-04-26T05:52:48;101353.34;;;3.03;100.00
22550;BME280;11441;57.164;-2.120;2023-04-26T05:55:15;101350.72;;;2.93;100.00
22550;BME280;11441;57.164;-2.120;2023-04-26T05:57:42;101354.53;;;2.92;100.00
22550;BME280;11441;57.164;-2.120;2023-04-26T06:00:28;101362.25;;;3.09;100.00
22550;BME280;11441;57.164;-2.120;2023-04-26T06:02:55;101364.63;;;3.15;100.00
22550;BME280;11441;57.164;-2.120;2023-04-26T06:05:22;101365.50;;;3.11;100.00
22550;BME280;11441;57.164;-2.120;2023-04-26T06:07:49;101359.97;;;2.92;100.00
22550;BME280;11441;57.164;-2.120;2023-04-26T06:10:16;101364.09;;;2.89;100.00
22550;BME280;11441;57.164;-2.120;2023-04-26T06:13:02;101362.06;;;3.00;100.00
22550;BME280;11441;57.164;-2.120;2023-04-26T06:15:32;101358.00;;;2.97;100.00
22550;BME280;11441;57.164;-2.120;2023-04-26T06:17:59;101362.34;;;2.98;100.00
22550;BME280;11441;57.164;-2.120;2023-04-26T06:20:26;101360.84;;;3.11;100.00
22550;BME280;11441;57.164;-2.120;2023-04-26T06:22:53;101365.31;;;3.02;100.00
22550;BME280;11441;57.164;-2.120;2023-04-26T06:25:21;101357.84;;;3.13;100.00
22550;BME280;11441;57.164;-2.120;2023-04-26T06:27:48;101364.31;;;3.17;100.00
22550;BME280;11441;57.164;-2.120;2023-04-26T06:30:15;101362.47;;;3.12;100.00
22550;BME280;11441;57.164;-2.120;2023-04-26T06:32:45;101359.16;;;2.91;100.00
22550;BME280;11441;57.164;-2.120;2023-04-26T06:35:13;101358.81;;;3.22;100.00
22550;BME280;11441;57.164;-2.120;2023-04-26T06:37:40;101366.81;;;3.13;100.00
22550;BME280;11441;57.164;-2.120;2023-04-26T06:40:25;101371.44;;;3.13;100.00
22550;BME280;11441;57.164;-2.120;2023-04-26T06:42:52;101368.00;;;3.31;100.00
22550;BME280;11441;57.164;-2.120;2023-04-26T06:45:31;101359.50;;;3.38;100.00
22550;BME280;11441;57.164;-2.120;2023-04-26T06:47:59;101366.19;;;3.46;100.00
22550;BME280;11441;57.164;-2.120;2023-04-26T06:50:28;101369.09;;;3.54;100.00
22550;BME280;11441;57.164;-2.120;2023-04-26T06:52:55;101375.44;;;3.45;100.00
22550;BME280;11441;57.164;-2.120;2023-04-26T06:55:22;101362.16;;;3.62;100.00
22550;BME280;11441;57.164;-2.120;2023-04-26T06:58:07;101369.28;;;3.82;100.00
22550;BME280;11441;57.164;-2.120;2023-04-26T07:00:53;101373.13;;;4.00;100.00
22550;BME280;11441;57.164;-2.120;2023-04-26T07:03:19;101366.88;;;4.00;100.00
22550;BME280;11441;57.164;-2.120;2023-04-26T07:05:46;101366.94;;;3.94;100.00
22550;BME280;11441;57.164;-2.120;2023-04-26T07:08:13;101370.97;;;3.78;100.00
22550;BME280;11441;57.164;-2.120;2023-04-26T07:10:41;101370.91;;;4.02;100.00
22550;BME280;11441;57.164;-2.120;2023-04-26T07:13:07;101373.84;;;4.06;100.00
22550;BME280;11441;57.164;-2.120;2023-04-26T07:15:35;101362.44;;;4.04;100.00
22550;BME280;11441;57.164;-2.120;2023-04-26T07:18:02;101364.94;;;4.00;100.00
22550;BME280;11441;57.164;-2.120;2023-04-26T07:20:29;101367.75;;;4.14;100.00
22550;BME280;11441;57.164;-2.120;2023-04-26T07:22:56;101358.75;;;4.32;100.00
22550;BME280;11441;57.164;-2.120;2023-04-26T07:25:22;101360.88;;;4.36;100.00
22550;BME280;11441;57.164;-2.120;2023-04-26T07:27:49;101361.41;;;4.19;100.00
22550;BME280;11441;57.164;-2.120;2023-04-26T07:30:17;101364.78;;;4.29;100.00
22550;BME280;11441;57.164;-2.120;2023-04-26T07:32:44;101355.34;;;4.41;100.00
22550;BME280;11441;57.164;-2.120;2023-04-26T07:35:11;101358.03;;;4.27;100.00
22550;BME280;11441;57.164;-2.120;2023-04-26T07:37:42;101366.78;;;4.24;100.00
22550;BME280;11441;57.164;-2.120;2023-04-26T07:40:10;101358.47;;;4.34;100.00
22550;BME280;11441;57.164;-2.120;2023-04-26T07:42:37;101357.13;;;4.31;100.00
22550;BME280;11441;57.164;-2.120;2023-04-26T07:45:04;101364.41;;;4.36;100.00
22550;BME280;11441;57.164;-2.120;2023-04-26T07:47:31;101348.56;;;4.38;100.00
22550;BME280;11441;57.164;-2.120;2023-04-26T07:49:58;101351.84;;;4.54;100.00
22550;BME280;11441;57.164;-2.120;2023-04-26T07:52:25;101353.41;;;4.60;100.00
22550;BME280;11441;57.164;-2.120;2023-04-26T07:54:52;101358.78;;;4.65;100.00
22550;BME280;11441;57.164;-2.120;2023-04-26T07:57:19;101357.03;;;4.37;100.00
22550;BME280;11441;57.164;-2.120;2023-04-26T07:59:46;101353.31;;;4.65;100.00
22550;BME280;11441;57.164;-2.120;2023-04-26T08:02:13;101351.19;;;4.62;100.00
22550;BME280;11441;57.164;-2.120;2023-04-26T08:04:46;101345.34;;;4.69;100.00
22550;BME280;11441;57.164;-2.120;2023-04-26T08:07:14;101357.00;;;4.56;100.00
22550;BME280;11441;57.164;-2.120;2023-04-26T08:09:42;101350.41;;;4.76;100.00
22550;BME280;11441;57.164;-2.120;2023-04-26T08:12:10;101350.81;;;4.83;100.00
22550;BME280;11441;57.164;-2.120;2023-04-26T08:14:37;101348.41;;;4.95;100.00
22550;BME280;11441;57.164;-2.120;2023-04-26T08:17:04;101345.91;;;4.99;100.00
22550;BME280;11441;57.164;-2.120;2023-04-26T08:19:32;101340.63;;;4.88;100.00
22550;BME280;11441;57.164;-2.120;2023-04-26T08:21:59;101341.94;;;4.91;100.00
22550;BME280;11441;57.164;-2.120;2023-04-26T08:24:26;101337.88;;;4.75;100.00
22550;BME280;11441;57.164;-2.120;2023-04-26T08:26:53;101341.84;;;4.96;100.00
22550;BME280;11441;57.164;-2.120;2023-04-26T08:29:21;101338.72;;;5.03;100.00
22550;BME280;11441;57.164;-2.120;2023-04-26T08:31:48;101332.16;;;5.18;100.00
22550;BME280;11441;57.164;-2.120;2023-04-26T08:34:15;101332.16;;;5.04;100.00
22550;BME280;11441;57.164;-2.120;2023-04-26T08:36:43;101330.03;;;5.15;100.00
22550;BME280;11441;57.164;-2.120;2023-04-26T08:39:11;101333.16;;;5.22;100.00
22550;BME280;11441;57.164;-2.120;2023-04-26T08:41:42;101330.94;;;5.24;100.00
22550;BME280;11441;57.164;-2.120;2023-04-26T08:44:28;101332.38;;;5.35;100.00
22550;BME280;11441;57.164;-2.120;2023-04-26T08:47:05;101336.19;;;5.48;100.00
22550;BME280;11441;57.164;-2.120;2023-04-26T08:49:46;101330.72;;;5.62;100.00
22550;BME280;11441;57.164;-2.120;2023-04-26T08:52:19;101332.53;;;5.66;100.00
22550;BME280;11441;57.164;-2.120;2023-04-26T08:54:50;101334.47;;;5.66;100.00
22550;BME280;11441;57.164;-2.120;2023-04-26T08:57:18;101340.16;;;5.56;100.00
22550;BME280;11441;57.164;-2.120;2023-04-26T08:59:48;101334.59;;;5.47;100.00
22550;BME280;11441;57.164;-2.120;2023-04-26T09:02:20;101340.22;;;5.78;100.00
22550;BME280;11441;57.164;-2.120;2023-04-26T09:04:49;101340.44;;;5.54;100.00
22550;BME280;11441;57.164;-2.120;2023-04-26T09:07:56;101337.16;;;5.80;100.00
22550;BME280;11441;57.164;-2.120;2023-04-26T09:10:25;101331.00;;;5.74;100.00
22550;BME280;11441;57.164;-2.120;2023-04-26T09:12:53;101338.88;;;5.90;100.00
22550;BME280;11441;57.164;-2.120;2023-04-26T09:15:22;101335.84;;;5.77;100.00
22550;BME280;11441;57.164;-2.120;2023-04-26T09:17:49;101336.25;;;5.71;100.00
22550;BME280;11441;57.164;-2.120;2023-04-26T09:20:28;101338.38;;;5.88;100.00
22550;BME280;11441;57.164;-2.120;2023-04-26T09:23:14;101338.25;;;5.93;93.23
22550;BME280;11441;57.164;-2.120;2023-04-26T09:25:42;101334.56;;;5.75;91.63
22550;BME280;11441;57.164;-2.120;2023-04-26T09:28:20;101341.91;;;5.88;89.48
22550;BME280;11441;57.164;-2.120;2023-04-26T09:30:48;101338.06;;;6.03;89.94
22550;BME280;11441;57.164;-2.120;2023-04-26T09:33:15;101331.78;;;6.25;90.96
22550;BME280;11441;57.164;-2.120;2023-04-26T09:35:43;101335.53;;;6.29;88.92
22550;BME280;11441;57.164;-2.120;2023-04-26T09:38:15;101325.63;;;6.42;90.92
22550;BME280;11441;57.164;-2.120;2023-04-26T09:40:45;101329.28;;;6.37;91.04
22550;BME280;11441;57.164;-2.120;2023-04-26T09:45:50;101334.91;;;6.55;89.18
22550;BME280;11441;57.164;-2.120;2023-04-26T09:48:21;101335.59;;;6.60;95.13
22550;BME280;11441;57.164;-2.120;2023-04-26T09:50:53;101332.78;;;6.52;88.38
22550;BME280;11441;57.164;-2.120;2023-04-26T09:55:55;101321.78;;;6.43;86.44
22550;BME280;11441;57.164;-2.120;2023-04-26T09:58:22;101323.16;;;6.32;83.81
22550;BME280;11441;57.164;-2.120;2023-04-26T10:00:50;101329.03;;;6.70;84.32
22550;BME280;11441;57.164;-2.120;2023-04-26T10:03:18;101325.53;;;6.78;84.87
22550;BME280;11441;57.164;-2.120;2023-04-26T10:05:46;101314.34;;;6.66;87.41
22550;BME280;11441;57.164;-2.120;2023-04-26T10:08:32;101321.06;;;6.60;84.35
22550;BME280;11441;57.164;-2.120;2023-04-26T10:10:59;101323.00;;;6.59;83.98
22550;BME280;11441;57.164;-2.120;2023-04-26T10:13:49;101321.53;;;6.31;83.70
22550;BME280;11441;57.164;-2.120;2023-04-26T10:16:16;101317.72;;;6.63;85.27
22550;BME280;11441;57.164;-2.120;2023-04-26T10:18:43;101312.81;;;6.51;87.97
22550;BME280;11441;57.164;-2.120;2023-04-26T10:21:11;101320.50;;;6.72;85.58
22550;BME280;11441;57.164;-2.120;2023-04-26T10:23:39;101311.22;;;6.50;85.45
22550;BME280;11441;57.164;-2.120;2023-04-26T10:26:06;101302.97;;;6.73;85.36
22550;BME280;11441;57.164;-2.120;2023-04-26T10:31:25;101314.72;;;6.73;77.63
22550;BME280;11441;57.164;-2.120;2023-04-26T10:34:18;101308.69;;;6.94;75.19
22550;BME280;11441;57.164;-2.120;2023-04-26T10:37:13;101304.16;;;7.29;76.09
22550;BME280;11441;57.164;-2.120;2023-04-26T10:39:43;101309.91;;;7.19;75.35
22550;BME280;11441;57.164;-2.120;2023-04-26T10:42:29;101296.72;;;7.21;75.61
22550;BME280;11441;57.164;-2.120;2023-04-26T10:45:25;101304.94;;;7.21;74.95
22550;BME280;11441;57.164;-2.120;2023-04-26T10:53:57;101304.59;;;7.23;76.39
22550;BME280;11441;57.164;-2.120;2023-04-26T10:59:13;101303.56;;;7.50;73.88
22550;BME280;11441;57.164;-2.120;2023-04-26T11:01:43;101295.28;;;7.24;73.88
22550;BME280;11441;57.164;-2.120;2023-04-26T11:04:11;101304.34;;;7.42;75.34
22550;BME280;11441;57.164;-2.120;2023-04-26T11:06:52;101298.88;;;7.50;73.78
22550;BME280;11441;57.164;-2.120;2023-04-26T11:09:39;101299.44;;;7.79;73.15
22550;BME280;11441;57.164;-2.120;2023-04-26T11:12:11;101296.19;;;8.03;73.87
22550;BME280;11441;57.164;-2.120;2023-04-26T11:14:40;101286.03;;;8.03;71.59
22550;BME280;11441;57.164;-2.120;2023-04-26T11:17:08;101283.75;;;8.23;71.33
22550;BME280;11441;57.164;-2.120;2023-04-26T11:19:35;101289.56;;;8.21;71.54
22550;BME280;11441;57.164;-2.120;2023-04-26T11:22:05;101291.53;;;8.03;72.16
22550;BME280;11441;57.164;-2.120;2023-04-26T11:24:33;101291.69;;;7.89;73.51
22550;BME280;11441;57.164;-2.120;2023-04-26T11:27:08;101293.28;;;8.08;73.75
22550;BME280;11441;57.164;-2.120;2023-04-26T11:29:36;101293.13;;;7.87;69.84
22550;BME280;11441;57.164;-2.120;2023-04-26T11:32:03;101289.41;;;7.65;69.59
22550;BME280;11441;57.164;-2.120;2023-04-26T11:34:31;101291.03;;;7.66;69.86
22550;BME280;11441;57.164;-2.120;2023-04-26T11:37:00;101285.88;;;7.82;70.95
22550;BME280;11441;57.164;-2.120;2023-04-26T11:39:30;101297.00;;;7.68;70.16
22550;BME280;11441;57.164;-2.120;2023-04-26T11:42:07;101286.34;;;7.67;71.62
22550;BME280;11441;57.164;-2.120;2023-04-26T11:44:35;101282.97;;;7.87;70.15
22550;BME280;11441;57.164;-2.120;2023-04-26T11:47:04;101286.03;;;7.68;70.64
22550;BME280;11441;57.164;-2.120;2023-04-26T11:49:33;101287.63;;;7.69;72.72
22550;BME280;11441;57.164;-2.120;2023-04-26T11:52:02;101285.22;;;8.03;69.22
22550;BME280;11441;57.164;-2.120;2023-04-26T11:54:32;101279.91;;;8.24;69.63
22550;BME280;11441;57.164;-2.120;2023-04-26T11:56:59;101277.75;;;8.38;67.96
22550;BME280;11441;57.164;-2.120;2023-04-26T11:59:28;101276.63;;;8.48;66.94
22550;BME280;11441;57.164;-2.120;2023-04-26T12:01:58;101279.28;;;8.74;65.61
22550;BME280;11441;57.164;-2.120;2023-04-26T12:04:28;101282.28;;;8.52;78.39
22550;BME280;11441;57.164;-2.120;2023-04-26T12:06:56;101286.78;;;8.65;80.19
22550;BME280;11441;57.164;-2.120;2023-04-26T12:09:25;101281.16;;;8.53;82.99
22550;BME280;11441;57.164;-2.120;2023-04-26T12:11:57;101281.31;;;8.39;85.69
22550;BME280;11441;57.164;-2.120;2023-04-26T12:14:36;101284.38;;;8.55;83.78
22550;BME280;11441;57.164;-2.120;2023-04-26T12:17:04;101281.78;;;8.49;85.32
22550;BME280;11441;57.164;-2.120;2023-04-26T12:19:39;101283.72;;;8.58;88.13
22550;BME280;11441;57.164;-2.120;2023-04-26T12:22:07;101284.66;;;8.62;81.80
22550;BME280;11441;57.164;-2.120;2023-04-26T12:24:34;101279.19;;;8.62;88.77
22550;BME280;11441;57.164;-2.120;2023-04-26T12:27:05;101291.34;;;8.17;84.64
22550;BME280;11441;57.164;-2.120;2023-04-26T12:29:33;101288.75;;;8.38;83.65
22550;BME280;11441;57.164;-2.120;2023-04-26T12:32:01;101291.66;;;8.42;83.52
22550;BME280;11441;57.164;-2.120;2023-04-26T12:34:47;101287.13;;;8.28;85.28
22550;BME280;11441;57.164;-2.120;2023-04-26T12:37:14;101284.84;;;8.57;91.95
22550;BME280;11441;57.164;-2.120;2023-04-26T12:39:41;101277.94;;;8.33;83.84
22550;BME280;11441;57.164;-2.120;2023-04-26T12:42:09;101280.34;;;8.35;91.08
22550;BME280;11441;57.164;-2.120;2023-04-26T12:44:36;101301.34;;;8.30;82.02
22550;BME280;11441;57.164;-2.120;2023-04-26T12:47:03;101297.97;;;8.42;81.91
22550;BME280;11441;57.164;-2.120;2023-04-26T12:49:29;101296.38;;;8.06;81.67
22550;BME280;11441;57.164;-2.120;2023-04-26T12:52:15;101308.31;;;7.93;82.76
22550;BME280;11441;57.164;-2.120;2023-04-26T12:54:42;101292.97;;;8.01;84.28
22550;BME280;11441;57.164;-2.120;2023-04-26T12:57:10;101317.34;;;8.20;83.91
22550;BME280;11441;57.164;-2.120;2023-04-26T12:59:55;101306.19;;;8.25;82.90
22550;BME280;11441;57.164;-2.120;2023-04-26T13:02:22;101315.38;;;8.11;83.15
22550;BME280;11441;57.164;-2.120;2023-04-26T13:04:50;101322.50;;;8.12;86.14
22550;BME280;11441;57.164;-2.120;2023-04-26T13:07:17;101318.78;;;8.17;89.92
22550;BME280;11441;57.164;-2.120;2023-04-26T13:09:44;101319.44;;;7.97;85.40
22550;BME280;11441;57.164;-2.120;2023-04-26T13:12:11;101323.75;;;7.71;86.86